Time;durP1;ratioP1;P1;durP2;ratioP2;P2;SDS_P1;SDS_P2;PMS_P1;PMS_P2;Temp;Humidity;BMP_temperature;BMP_pressure;BME280_temperature;BME280_humidity;BME280_pressure;Samples;Min_cycle;Max_cycle;Signal;HPM_P1;HPM_P2
2021/09/18 00:01:29;;;;;;;;;;;;;;;23.82;56.97;100225.22;5032222;28;1491;-46
2021/09/18 00:03:57;;;;;;;;;;;;;;;23.86;57.04;100217.59;5033460;28;1361;-46
2021/09/18 00:06:24;;;;;;;;;;;;;;;23.83;57.29;100209.84;5034285;28;1977;-47
2021/09/18 00:08:54;;;;;;;;;;;;;;;23.82;57.50;100200.94;5033215;28;1832;-46
2021/09/18 00:11:24;;;;;;;;;;;;;;;23.84;57.25;100208.03;5032907;28;1324;-46
2021/09/18 00:13:58;;;;;;;;;;;;;;;23.86;57.58;100227.56;5032904;28;1810;-47
2021/09/18 00:19:07;;;;;;;;;;;;;;;23.84;57.43;100208.03;5031160;28;1851;-47
2021/09/18 00:21:37;;;;;;;;;;;;;;;23.84;57.52;100210.72;5034228;28;1849;-46
2021/09/18 00:24:03;;;;;;;;;;;;;;;23.82;57.08;100203.63;5029147;28;1566;-46
2021/09/18 00:26:32;;;;;;;;;;;;;;;23.82;57.21;100222.53;5029409;28;1971;-46
2021/09/18 00:29:04;;;;;;;;;;;;;;;23.83;57.28;100220.66;5033115;28;1738;-46
2021/09/18 00:31:32;;;;;;;;;;;;;;;23.85;57.19;100215.91;5033002;28;1673;-46
2021/09/18 00:34:03;;;;;;;;;;;;;;;23.82;57.53;100211.72;5018966;28;1808;-46
2021/09/18 00:36:32;;;;;;;;;;;;;;;23.80;57.58;100202.97;5032369;28;1724;-46
2021/09/18 00:39:01;;;;;;;;;;;;;;;23.79;57.40;100203.97;5032572;28;1486;-46
2021/09/18 00:41:28;;;;;;;;;;;;;;;23.82;57.01;100200.09;5032560;28;1675;-47
2021/09/18 00:43:59;;;;;;;;;;;;;;;23.82;57.42;100211.72;5033399;28;1797;-47
2021/09/18 00:46:29;;;;;;;;;;;;;;;23.82;57.18;100210.91;5034148;28;1910;-47
2021/09/18 00:48:58;;;;;;;;;;;;;;;23.84;57.39;100213.41;5032271;28;1783;-46
2021/09/18 00:51:24;;;;;;;;;;;;;;;23.84;56.92;100198.06;5030346;28;1251;-46
2021/09/18 00:53:56;;;;;;;;;;;;;;;23.82;57.07;100208.19;5032684;28;1742;-46
2021/09/18 00:56:23;;;;;;;;;;;;;;;23.80;57.33;100202.97;5032306;28;1762;-46
2021/09/18 00:58:51;;;;;;;;;;;;;;;23.81;56.83;100193.84;5032632;28;1682;-46
2021/09/18 01:01:20;;;;;;;;;;;;;;;23.81;57.49;100206.50;5033556;28;1737;-46
2021/09/18 01:03:50;;;;;;;;;;;;;;;23.81;57.29;100201.09;5032897;28;1153;-46
2021/09/18 01:06:19;;;;;;;;;;;;;;;23.84;56.72;100208.03;5032520;28;1993;-46
2021/09/18 01:08:49;;;;;;;;;;;;;;;23.82;57.38;100190.13;5033579;28;1925;-46
2021/09/18 01:11:16;;;;;;;;;;;;;;;23.81;57.29;100199.25;5033791;28;1347;-46
2021/09/18 01:13:50;;;;;;;;;;;;;;;23.80;57.00;100188.63;5033345;28;1710;-46
2021/09/18 01:16:27;;;;;;;;;;;;;;;23.81;57.15;100188.47;5035831;28;1132;-46
2021/09/18 01:18:57;;;;;;;;;;;;;;;23.83;57.09;100190.94;5037002;28;1056;-46
2021/09/18 01:21:26;;;;;;;;;;;;;;;23.81;57.37;100199.25;5036353;28;1687;-46
2021/09/18 01:24:06;;;;;;;;;;;;;;;23.82;57.14;100200.94;5035986;28;1682;-46
2021/09/18 01:26:43;;;;;;;;;;;;;;;23.78;57.20;100199.59;5032757;28;1906;-46
2021/09/18 01:29:10;;;;;;;;;;;;;;;23.79;57.20;100182.38;5032174;28;1482;-46
2021/09/18 01:31:40;;;;;;;;;;;;;;;23.80;57.25;100181.38;5036154;28;1288;-47
2021/09/18 01:34:08;;;;;;;;;;;;;;;23.80;57.29;100186.75;5036380;28;1064;-46
2021/09/18 01:36:35;;;;;;;;;;;;;;;23.81;57.50;100201.09;5039536;28;1579;-46
2021/09/18 01:39:10;;;;;;;;;;;;;;;23.78;57.63;100194.22;5035442;28;1631;-46
2021/09/18 01:41:40;;;;;;;;;;;;;;;23.78;57.64;100188.81;5035569;28;1504;-46
2021/09/18 01:44:07;;;;;;;;;;;;;;;23.83;57.23;100196.34;5036324;28;1647;-46
2021/09/18 01:46:44;;;;;;;;;;;;;;;23.80;57.33;100186.75;5034859;28;1987;-47
2021/09/18 01:49:14;;;;;;;;;;;;;;;23.81;57.38;100215.47;5031789;28;1047;-46
2021/09/18 01:51:54;;;;;;;;;;;;;;;23.82;57.33;100203.63;5036712;28;1446;-47
2021/09/18 01:54:28;;;;;;;;;;;;;;;23.79;57.54;100203.97;5036884;28;1968;-47
2021/09/18 01:56:58;;;;;;;;;;;;;;;23.78;57.65;100202.31;5036185;28;1516;-47
2021/09/18 01:59:28;;;;;;;;;;;;;;;23.78;57.76;100202.31;5036328;28;1737;-46
2021/09/18 02:01:54;;;;;;;;;;;;;;;23.78;57.48;100204.19;5131294;23;3764;-48
2021/09/18 02:04:21;;;;;;;;;;;;;;;23.78;57.45;100210.41;5000600;28;1784;-48
2021/09/18 02:06:47;;;;;;;;;;;;;;;23.79;57.54;100206.66;5003895;28;1975;-48
2021/09/18 02:09:14;;;;;;;;;;;;;;;23.81;57.39;100203.78;5002283;28;3143;-48
2021/09/18 02:11:42;;;;;;;;;;;;;;;23.81;57.57;100210.06;5011362;28;1680;-47
2021/09/18 02:14:08;;;;;;;;;;;;;;;23.80;57.58;100197.56;5002537;28;1552;-47
2021/09/18 02:16:35;;;;;;;;;;;;;;;23.83;57.28;100204.47;5004590;28;1679;-48
2021/09/18 02:19:01;;;;;;;;;;;;;;;23.82;57.21;100203.63;5003757;28;1094;-47
2021/09/18 02:21:28;;;;;;;;;;;;;;;23.80;57.32;100219.16;5009412;28;1755;-48
2021/09/18 02:23:54;;;;;;;;;;;;;;;23.79;57.79;100198.56;5003488;28;1810;-48
2021/09/18 02:26:20;;;;;;;;;;;;;;;23.78;57.39;100207.72;5001622;28;1981;-47
2021/09/18 02:28:48;;;;;;;;;;;;;;;23.79;57.36;100205.84;5002114;28;2077;-47
2021/09/18 02:31:15;;;;;;;;;;;;;;;23.79;57.39;100208.53;5003480;28;1751;-47
2021/09/18 02:33:41;;;;;;;;;;;;;;;23.79;57.65;100205.84;5004684;28;1027;-47
2021/09/18 02:36:08;;;;;;;;;;;;;;;23.80;57.58;100210.25;5008247;28;1689;-47
2021/09/18 02:38:34;;;;;;;;;;;;;;;23.77;57.68;100203.31;5004782;28;1409;-48
2021/09/18 02:41:01;;;;;;;;;;;;;;;23.78;57.61;100199.59;5011336;28;1075;-47
2021/09/18 02:43:27;;;;;;;;;;;;;;;23.79;57.57;100205.84;5002279;28;996;-47
2021/09/18 02:45:55;;;;;;;;;;;;;;;23.77;57.62;100213.25;5001548;28;1910;-47
2021/09/18 02:48:22;;;;;;;;;;;;;;;23.78;57.63;100201.47;5002385;28;2248;-47
2021/09/18 02:50:49;;;;;;;;;;;;;;;23.77;57.65;100202.44;5006607;28;1417;-47
2021/09/18 02:53:16;;;;;;;;;;;;;;;23.77;57.16;100203.31;5005712;28;1860;-48
2021/09/18 02:55:42;;;;;;;;;;;;;;;23.79;57.65;100206.66;5002289;28;1641;-48
2021/09/18 02:58:09;;;;;;;;;;;;;;;23.76;57.25;100215.13;5001400;28;1469;-47
2021/09/18 03:00:35;;;;;;;;;;;;;;;23.78;57.60;100188.81;5001917;28;1687;-48
2021/09/18 03:03:03;;;;;;;;;;;;;;;23.81;57.68;100193.00;5004547;28;1435;-46
2021/09/18 03:05:30;;;;;;;;;;;;;;;23.76;57.43;100195.38;5007849;28;1945;-47
2021/09/18 03:07:56;;;;;;;;;;;;;;;23.79;57.64;100195.88;5003266;28;1969;-47
2021/09/18 03:10:23;;;;;;;;;;;;;;;23.79;57.77;100211.25;5005601;28;1083;-47
2021/09/18 03:12:49;;;;;;;;;;;;;;;23.77;57.91;100191.66;5011203;28;1649;-47
2021/09/18 03:15:15;;;;;;;;;;;;;;;23.78;57.60;100199.59;5001283;28;1683;-47
2021/09/18 03:17:42;;;;;;;;;;;;;;;23.78;57.53;100194.22;5002922;28;1925;-47
2021/09/18 03:20:10;;;;;;;;;;;;;;;23.76;57.72;100204.31;5003745;28;1675;-48
2021/09/18 03:22:37;;;;;;;;;;;;;;;23.79;57.53;100195.03;5000894;28;1612;-47
2021/09/18 03:25:04;;;;;;;;;;;;;;;23.76;57.37;100201.63;5001308;28;1914;-47
2021/09/18 03:27:30;;;;;;;;;;;;;;;23.77;57.57;100200.63;5001885;28;1967;-47
2021/09/18 03:29:57;;;;;;;;;;;;;;;23.74;57.33;100213.63;5001935;28;1585;-48
2021/09/18 03:32:23;;;;;;;;;;;;;;;23.76;57.59;100201.63;5002049;28;1452;-47
2021/09/18 03:34:50;;;;;;;;;;;;;;;23.80;57.44;100207.53;5009017;28;1735;-48
2021/09/18 03:37:18;;;;;;;;;;;;;;;23.79;57.43;100211.25;5000880;28;1833;-47
2021/09/18 03:39:44;;;;;;;;;;;;;;;23.75;57.65;100205.31;5003831;28;1104;-47
2021/09/18 03:42:11;;;;;;;;;;;;;;;23.76;57.41;100212.41;5008379;28;1702;-48
2021/09/18 03:44:37;;;;;;;;;;;;;;;23.77;57.74;100200.63;5001342;28;1581;-48
2021/09/18 03:47:04;;;;;;;;;;;;;;;23.77;57.38;100207.84;5004318;28;1985;-47
2021/09/18 03:49:30;;;;;;;;;;;;;;;23.77;57.26;100210.56;5001575;28;1976;-47
2021/09/18 03:51:57;;;;;;;;;;;;;;;23.76;57.91;100203.50;5002690;28;1486;-47
2021/09/18 03:54:25;;;;;;;;;;;;;;;23.78;57.81;100214.97;5002211;28;1405;-47
2021/09/18 03:56:51;;;;;;;;;;;;;;;23.78;57.48;100212.28;5003631;28;2011;-47
2021/09/18 03:59:18;;;;;;;;;;;;;;;23.75;57.77;100209.88;5008495;28;1667;-47
2021/09/18 04:01:44;;;;;;;;;;;;;;;23.76;57.38;100217.81;5000751;28;1772;-48
2021/09/18 04:04:11;;;;;;;;;;;;;;;23.77;57.33;100197.91;5003036;28;2037;-48
2021/09/18 04:06:37;;;;;;;;;;;;;;;23.75;57.63;100194.53;5001129;28;1898;-47
2021/09/18 04:09:04;;;;;;;;;;;;;;;23.76;57.58;100200.78;5000221;28;1816;-47
2021/09/18 04:11:31;;;;;;;;;;;;;;;23.79;57.44;100208.53;5009628;28;2086;-47
2021/09/18 04:13:58;;;;;;;;;;;;;;;23.75;57.32;100205.31;5002036;28;1706;-47
2021/09/18 04:16:24;;;;;;;;;;;;;;;23.77;57.39;100195.22;5001577;28;1781;-47
2021/09/18 04:18:51;;;;;;;;;;;;;;;23.75;57.80;100183.72;5003787;28;1061;-48
2021/09/18 04:21:17;;;;;;;;;;;;;;;23.76;57.85;100181.88;4998253;28;1882;-48
2021/09/18 04:23:44;;;;;;;;;;;;;;;23.78;57.68;100204.19;5001879;28;1809;-47
2021/09/18 04:26:10;;;;;;;;;;;;;;;23.75;57.80;100205.31;5002179;28;1938;-47
2021/09/18 04:28:38;;;;;;;;;;;;;;;23.78;57.77;100198.78;5004567;28;2782;-47
2021/09/18 04:31:05;;;;;;;;;;;;;;;23.78;57.37;100210.41;5007285;28;1599;-47
2021/09/18 04:33:31;;;;;;;;;;;;;;;23.75;57.49;100199.09;5005574;28;1004;-47
2021/09/18 04:35:58;;;;;;;;;;;;;;;23.76;57.36;100200.78;5002517;28;1772;-48
2021/09/18 04:38:24;;;;;;;;;;;;;;;23.76;57.81;100207.03;5001582;28;1681;-48
2021/09/18 04:40:51;;;;;;;;;;;;;;;23.75;57.80;100199.94;5007721;28;1139;-48
2021/09/18 04:43:17;;;;;;;;;;;;;;;23.78;57.60;100210.41;5000098;28;1792;-47
2021/09/18 04:45:45;;;;;;;;;;;;;;;23.77;57.78;100202.44;5000368;28;1938;-48
2021/09/18 04:48:11;;;;;;;;;;;;;;;23.76;57.63;100198.09;5003120;28;1918;-47
2021/09/18 04:50:38;;;;;;;;;;;;;;;23.77;57.71;100213.25;5009284;28;1621;-47
2021/09/18 04:53:04;;;;;;;;;;;;;;;23.76;57.53;100207.03;5005155;28;1823;-47
2021/09/18 04:55:31;;;;;;;;;;;;;;;23.77;56.99;100210.56;5003894;28;1540;-48
2021/09/18 04:57:57;;;;;;;;;;;;;;;23.77;57.71;100213.25;5006312;28;1730;-47
2021/09/18 05:00:24;;;;;;;;;;;;;;;23.74;57.90;100200.97;5005840;28;1870;-47
2021/09/18 05:02:52;;;;;;;;;;;;;;;23.78;57.43;100209.56;5004967;28;1361;-49
2021/09/18 05:05:18;;;;;;;;;;;;;;;23.75;57.54;100205.31;5010821;28;1918;-48
2021/09/18 05:07:45;;;;;;;;;;;;;;;23.76;57.57;100212.41;5004063;28;1984;-48
2021/09/18 05:10:11;;;;;;;;;;;;;;;23.77;58.01;100216.81;5007013;28;1081;-46
2021/09/18 05:12:38;;;;;;;;;;;;;;;23.78;57.56;100213.09;5007434;28;1981;-48
2021/09/18 05:15:05;;;;;;;;;;;;;;;23.76;57.45;100207.03;5005242;28;1771;-47
2021/09/18 05:17:31;;;;;;;;;;;;;;;23.78;57.61;100209.56;5005428;28;1989;-48
2021/09/18 05:19:59;;;;;;;;;;;;;;;23.78;57.79;100215.81;5003598;28;1709;-47
2021/09/18 05:22:26;;;;;;;;;;;;;;;23.81;57.76;100226.25;5003549;28;1827;-47
2021/09/18 05:24:52;;;;;;;;;;;;;;;23.77;57.41;100227.63;5004208;28;1585;-48
2021/09/18 05:27:19;;;;;;;;;;;;;;;23.80;57.59;100218.34;5004788;28;1967;-48
2021/09/18 05:29:46;;;;;;;;;;;;;;;23.84;57.56;100224.22;5004650;28;1089;-47
2021/09/18 05:32:12;;;;;;;;;;;;;;;23.81;56.98;100215.47;5003178;28;1759;-47
2021/09/18 05:34:39;;;;;;;;;;;;;;;23.86;57.06;100211.38;5011869;28;1888;-47
2021/09/18 05:37:07;;;;;;;;;;;;;;;23.87;57.48;100218.44;5004936;28;1825;-48
2021/09/18 05:39:33;;;;;;;;;;;;;;;23.90;57.10;100220.78;5004494;28;1941;-48
2021/09/18 05:42:00;;;;;;;;;;;;;;;23.91;57.02;100219.75;5011352;28;1683;-47
2021/09/18 05:44:26;;;;;;;;;;;;;;;23.91;57.40;100219.75;5003008;28;1739;-47
2021/09/18 05:46:53;;;;;;;;;;;;;;;23.89;57.39;100232.59;5006550;28;1902;-47
2021/09/18 05:49:19;;;;;;;;;;;;;;;23.90;56.82;100235.13;5010173;28;1746;-47
2021/09/18 05:51:46;;;;;;;;;;;;;;;23.91;56.95;100236.78;5007077;28;1910;-47
2021/09/18 05:54:14;;;;;;;;;;;;;;;23.91;57.16;100234.09;5004741;28;1683;-48
2021/09/18 05:56:40;;;;;;;;;;;;;;;23.88;57.15;100231.78;5004807;28;1537;-47
2021/09/18 05:59:06;;;;;;;;;;;;;;;23.89;57.28;100217.22;5003209;28;1705;-47
2021/09/18 06:01:33;;;;;;;;;;;;;;;23.94;57.01;100233.75;5002463;28;1936;-48
2021/09/18 06:03:59;;;;;;;;;;;;;;;23.90;57.18;100229.72;5006298;28;1080;-47
2021/09/18 06:06:26;;;;;;;;;;;;;;;23.89;56.97;100229.91;5002286;28;1601;-48
2021/09/18 06:08:53;;;;;;;;;;;;;;;23.91;57.40;100230.56;5003199;28;1968;-47
2021/09/18 06:11:21;;;;;;;;;;;;;;;23.88;57.01;100252.53;5012180;28;1605;-48
2021/09/18 06:13:48;;;;;;;;;;;;;;;23.89;57.91;100262.31;5003402;28;1729;-48
2021/09/18 06:16:15;;;;;;;;;;;;;;;23.91;57.44;100258.41;5002743;28;1066;-48
2021/09/18 06:18:41;;;;;;;;;;;;;;;23.90;57.74;100239.69;5001888;28;1600;-48
2021/09/18 06:21:08;;;;;;;;;;;;;;;23.88;57.39;100241.75;5003245;28;1814;-48
2021/09/18 06:23:37;;;;;;;;;;;;;;;23.91;57.62;100257.56;5004263;28;1716;-47
2021/09/18 06:26:03;;;;;;;;;;;;;;;23.86;57.41;100236.50;5004114;28;1644;-48
2021/09/18 06:28:31;;;;;;;;;;;;;;;23.89;57.19;100240.69;5003909;28;1979;-47
2021/09/18 06:30:58;;;;;;;;;;;;;;;23.87;57.56;100227.38;5003822;28;1650;-47
2021/09/18 06:33:24;;;;;;;;;;;;;;;23.91;57.29;100233.25;5006415;28;1004;-47
2021/09/18 06:35:51;;;;;;;;;;;;;;;23.95;57.11;100242.69;5005595;28;2003;-48
2021/09/18 06:38:21;;;;;;;;;;;;;;;23.93;56.89;100242.84;5004055;28;1481;-47
2021/09/18 06:40:48;;;;;;;;;;;;;;;23.93;57.40;100244.72;5009501;28;1059;-47
2021/09/18 06:43:14;;;;;;;;;;;;;;;23.94;57.28;100251.81;5001476;28;1850;-47
2021/09/18 06:45:42;;;;;;;;;;;;;;;23.90;57.52;100239.69;5002839;28;1619;-47
2021/09/18 06:48:10;;;;;;;;;;;;;;;23.90;57.21;100250.50;5003710;28;1910;-47
2021/09/18 06:50:37;;;;;;;;;;;;;;;23.92;57.33;100253.84;5006771;28;1744;-48
2021/09/18 06:53:04;;;;;;;;;;;;;;;23.91;57.15;100247.59;5002250;28;1670;-48
2021/09/18 06:55:30;;;;;;;;;;;;;;;23.92;57.47;100262.78;5001440;28;1659;-47
2021/09/18 06:57:57;;;;;;;;;;;;;;;23.90;57.69;100264.84;5001917;28;1413;-47
2021/09/18 07:00:23;;;;;;;;;;;;;;;23.93;57.50;100252.81;5003718;28;1809;-47
2021/09/18 07:02:51;;;;;;;;;;;;;;;23.91;57.40;100258.41;4998177;28;1372;-48
2021/09/18 07:05:18;;;;;;;;;;;;;;;23.94;57.24;100263.44;5009430;28;1909;-47
2021/09/18 07:07:45;;;;;;;;;;;;;;;23.90;57.38;100251.34;5001879;28;1915;-48
2021/09/18 07:10:12;;;;;;;;;;;;;;;23.94;57.27;100263.44;5004575;28;2060;-48
2021/09/18 07:12:38;;;;;;;;;;;;;;;23.92;57.09;100265.50;5005119;28;1532;-47
2021/09/18 07:15:05;;;;;;;;;;;;;;;23.95;57.41;100269.69;5002975;28;1960;-47
2021/09/18 07:17:32;;;;;;;;;;;;;;;23.96;57.38;100257.88;5003369;28;1984;-48
2021/09/18 07:20:00;;;;;;;;;;;;;;;23.94;57.72;100268.00;5001601;28;1454;-47
2021/09/18 07:22:26;;;;;;;;;;;;;;;23.94;57.35;100268.84;5000978;28;1381;-48
2021/09/18 07:24:53;;;;;;;;;;;;;;;23.92;57.53;100267.34;5002410;28;1686;-48
2021/09/18 07:27:19;;;;;;;;;;;;;;;23.96;57.51;100271.38;5002159;28;1991;-47
2021/09/18 07:29:46;;;;;;;;;;;;;;;23.95;57.10;100269.69;5002094;28;1100;-47
2021/09/18 07:32:13;;;;;;;;;;;;;;;23.93;57.06;100275.25;5001010;28;1900;-47
2021/09/18 07:34:40;;;;;;;;;;;;;;;23.95;57.19;100275.09;5009927;28;1661;-47
2021/09/18 07:37:08;;;;;;;;;;;;;;;23.95;57.18;100283.19;5002872;28;1518;-48
2021/09/18 07:39:34;;;;;;;;;;;;;;;23.96;57.58;100272.22;5002974;28;1102;-48
2021/09/18 07:42:01;;;;;;;;;;;;;;;23.99;57.11;100265.59;5009739;28;1893;-47
2021/09/18 07:44:27;;;;;;;;;;;;;;;23.99;56.96;100284.50;5000607;28;1711;-47
2021/09/18 07:46:53;;;;;;;;;;;;;;;23.96;57.33;100282.19;5000640;28;1739;-48
2021/09/18 07:49:20;;;;;;;;;;;;;;;23.97;56.98;100273.03;5000618;28;1967;-48
2021/09/18 07:51:46;;;;;;;;;;;;;;;23.99;57.48;100284.50;5000873;28;1768;-48
2021/09/18 07:54:14;;;;;;;;;;;;;;;23.96;57.33;100263.28;5000862;28;1767;-48
2021/09/18 07:56:41;;;;;;;;;;;;;;;23.99;57.03;100287.19;4998178;28;1492;-47
2021/09/18 07:59:07;;;;;;;;;;;;;;;23.99;57.12;100279.97;5002606;28;1633;-47
2021/09/18 08:01:34;;;;;;;;;;;;;;;23.99;56.94;100289.91;5002404;28;1963;-47
2021/09/18 08:04:01;;;;;;;;;;;;;;;23.98;57.15;100269.34;5007506;28;1040;-47
2021/09/18 08:06:28;;;;;;;;;;;;;;;23.99;57.49;100271.88;5000858;28;2095;-48
2021/09/18 08:08:54;;;;;;;;;;;;;;;23.97;57.31;100252.31;5008998;28;2095;-47
2021/09/18 08:11:23;;;;;;;;;;;;;;;24.01;56.97;100266.25;5002149;28;1681;-47
2021/09/18 08:13:49;;;;;;;;;;;;;;;23.99;57.47;100263.75;5001302;28;1472;-48
2021/09/18 08:16:16;;;;;;;;;;;;;;;24.04;57.06;100263.22;4996417;28;1086;-47
2021/09/18 08:18:43;;;;;;;;;;;;;;;24.03;57.78;100272.31;4999863;28;1760;-48
2021/09/18 08:21:09;;;;;;;;;;;;;;;24.02;57.29;100270.66;5001267;28;1717;-48
2021/09/18 08:23:36;;;;;;;;;;;;;;;24.01;57.63;100266.25;5001382;28;1742;-47
2021/09/18 08:26:02;;;;;;;;;;;;;;;24.03;57.68;100280.41;5002298;28;1434;-47
2021/09/18 08:28:30;;;;;;;;;;;;;;;24.05;57.55;100280.25;5002079;28;1975;-48
2021/09/18 08:30:57;;;;;;;;;;;;;;;24.05;57.32;100278.38;5002104;28;1551;-48
2021/09/18 08:33:23;;;;;;;;;;;;;;;24.05;57.00;100264.03;5004457;28;1062;-47
2021/09/18 08:35:50;;;;;;;;;;;;;;;24.03;57.55;100256.13;5003841;28;1638;-47
2021/09/18 08:38:17;;;;;;;;;;;;;;;24.02;57.39;100257.97;5002069;28;1473;-48
2021/09/18 08:40:45;;;;;;;;;;;;;;;24.03;57.05;100256.13;5007397;28;951;-48
2021/09/18 08:43:12;;;;;;;;;;;;;;;24.04;57.09;100263.22;5000203;28;1872;-48
2021/09/18 08:45:40;;;;;;;;;;;;;;;24.05;57.35;100264.03;5001069;28;1888;-47
2021/09/18 08:48:07;;;;;;;;;;;;;;;24.05;57.17;100275.69;5002397;28;1985;-48
2021/09/18 08:50:34;;;;;;;;;;;;;;;24.07;57.03;100264.69;4998145;28;1761;-47
2021/09/18 08:53:01;;;;;;;;;;;;;;;24.04;57.01;100260.50;5000561;28;1912;-48
2021/09/18 08:55:27;;;;;;;;;;;;;;;24.07;57.13;100268.22;4999604;28;1681;-47
2021/09/18 08:57:55;;;;;;;;;;;;;;;24.09;57.19;100287.78;5000894;28;1701;-47
2021/09/18 09:00:39;;;;;;;;;;;;;;;23.97;57.52;100256.84;5001515;28;1483;-48
2021/09/18 09:03:08;;;;;;;;;;;;;;;24.07;57.06;100256.59;5003007;28;1503;-47
2021/09/18 09:05:36;;;;;;;;;;;;;;;24.06;56.98;100271.13;5005442;28;1699;-47
2021/09/18 09:08:06;;;;;;;;;;;;;;;24.07;57.22;100276.34;5001668;28;1984;-47
2021/09/18 09:10:32;;;;;;;;;;;;;;;24.09;57.48;100276.16;5005121;28;1104;-47
2021/09/18 09:13:04;;;;;;;;;;;;;;;24.07;57.00;100268.22;5001383;28;2122;-47
2021/09/18 09:15:30;;;;;;;;;;;;;;;24.09;57.12;100281.56;5003066;28;1721;-46
2021/09/18 09:18:14;;;;;;;;;;;;;;;24.11;57.32;100274.94;5003088;28;1684;-47
2021/09/18 09:20:42;;;;;;;;;;;;;;;24.09;57.38;100260.78;5003772;28;1776;-48
2021/09/18 09:23:14;;;;;;;;;;;;;;;24.08;56.87;100261.81;5002991;28;1756;-47
2021/09/18 09:25:41;;;;;;;;;;;;;;;24.11;57.02;100253.34;5003243;28;1799;-47
2021/09/18 09:28:22;;;;;;;;;;;;;;;24.12;57.10;100255.03;5002138;28;1911;-47
2021/09/18 09:30:49;;;;;;;;;;;;;;;24.07;57.44;100254.72;4997958;28;1644;-47
2021/09/18 09:33:16;;;;;;;;;;;;;;;24.10;56.96;100267.06;5004525;28;1178;-47
2021/09/18 09:35:44;;;;;;;;;;;;;;;24.10;56.97;100262.47;5008845;28;1670;-47
2021/09/18 09:38:10;;;;;;;;;;;;;;;24.12;57.41;100268.53;5007246;28;1764;-47
2021/09/18 09:40:38;;;;;;;;;;;;;;;24.11;57.20;100268.72;5016840;28;2069;-47
2021/09/18 09:43:05;;;;;;;;;;;;;;;24.13;57.21;100262.13;5005019;28;2024;-47
2021/09/18 09:45:32;;;;;;;;;;;;;;;24.16;57.14;100258.22;5004678;28;1802;-47
2021/09/18 09:48:04;;;;;;;;;;;;;;;24.14;57.30;100266.50;5009301;28;1969;-48
2021/09/18 09:50:31;;;;;;;;;;;;;;;24.15;57.73;100275.44;5005161;28;1669;-48
2021/09/18 09:52:58;;;;;;;;;;;;;;;24.17;57.26;100279.66;5005758;28;1638;-47
2021/09/18 09:55:25;;;;;;;;;;;;;;;24.17;57.37;100268.84;5005239;28;1128;-48
2021/09/18 09:57:57;;;;;;;;;;;;;;;24.16;57.60;100271.72;5004582;28;1013;-47
2021/09/18 10:00:24;;;;;;;;;;;;;;;24.18;56.91;100281.31;5004187;28;1867;-47
2021/09/18 10:02:51;;;;;;;;;;;;;;;24.15;57.50;100268.19;5004073;28;1942;-47
2021/09/18 10:05:17;;;;;;;;;;;;;;;24.21;57.05;100280.09;5011916;28;1932;-48
2021/09/18 10:07:44;;;;;;;;;;;;;;;24.17;57.63;100279.66;5008346;28;1007;-47
2021/09/18 10:10:13;;;;;;;;;;;;;;;24.20;57.74;100273.88;5009490;28;1936;-47
2021/09/18 10:12:40;;;;;;;;;;;;;;;24.19;57.15;100271.34;5005814;28;1604;-47
2021/09/18 10:15:07;;;;;;;;;;;;;;;24.14;57.04;100261.09;5006592;28;1956;-48
2021/09/18 10:17:36;;;;;;;;;;;;;;;24.15;57.51;100254.69;5004303;28;1963;-47
2021/09/18 10:20:09;;;;;;;;;;;;;;;24.17;57.43;100267.97;5004142;28;1831;-47
2021/09/18 10:25:23;;;;;;;;;;;;;;;24.20;57.36;100260.38;5003847;28;2006;-48
2021/09/18 10:28:01;;;;;;;;;;;;;;;24.18;57.25;100265.09;5004387;28;1781;-48
2021/09/18 10:30:28;;;;;;;;;;;;;;;24.16;57.17;100245.53;5009702;28;1913;-47
2021/09/18 10:32:55;;;;;;;;;;;;;;;24.14;57.71;100250.28;5006250;28;1092;-47
2021/09/18 10:35:22;;;;;;;;;;;;;;;24.14;57.55;100250.28;5010771;28;1885;-47
2021/09/18 10:37:48;;;;;;;;;;;;;;;24.18;57.02;100261.56;5004650;28;1566;-47
2021/09/18 10:40:16;;;;;;;;;;;;;;;24.18;57.33;100248.91;5006985;28;1065;-47
2021/09/18 10:42:45;;;;;;;;;;;;;;;24.15;57.25;100249.28;5006737;28;1708;-47
2021/09/18 10:45:13;;;;;;;;;;;;;;;24.16;57.32;100263.63;5007848;28;1819;-47
2021/09/18 10:47:41;;;;;;;;;;;;;;;24.18;57.60;100262.41;5009460;28;1939;-47
2021/09/18 10:50:36;;;;;;;;;;;;;;;24.16;57.23;100245.53;5005647;28;1951;-47
2021/09/18 10:53:03;;;;;;;;;;;;;;;24.19;57.44;100253.28;4999354;28;1707;-47
2021/09/18 10:55:31;;;;;;;;;;;;;;;24.14;57.67;100253.00;5002996;28;1746;-47
2021/09/18 10:58:08;;;;;;;;;;;;;;;24.16;57.75;100250.13;5003093;28;1421;-47
2021/09/18 11:00:39;;;;;;;;;;;;;;;24.17;58.01;100260.75;5009168;28;1736;-47
2021/09/18 11:03:06;;;;;;;;;;;;;;;24.15;57.36;100251.97;4995383;28;1517;-47
2021/09/18 11:05:53;;;;;;;;;;;;;;;24.15;57.44;100265.50;5003133;28;1637;-47
2021/09/18 11:08:22;;;;;;;;;;;;;;;24.19;57.67;100265.94;5002930;28;1989;-47
2021/09/18 11:10:53;;;;;;;;;;;;;;;24.17;57.13;100276.09;5010531;28;1005;-47
2021/09/18 11:13:23;;;;;;;;;;;;;;;24.15;57.40;100265.50;5002830;28;1645;-47
2021/09/18 11:15:50;;;;;;;;;;;;;;;24.15;57.60;100270.91;5002950;28;2197;-47
2021/09/18 11:18:18;;;;;;;;;;;;;;;24.15;57.26;100262.78;4999959;28;1710;-47
2021/09/18 11:20:45;;;;;;;;;;;;;;;24.16;57.67;100277.13;5005674;28;1539;-47
2021/09/18 11:23:11;;;;;;;;;;;;;;;24.11;57.62;100274.94;5004882;28;1736;-47
2021/09/18 11:25:41;;;;;;;;;;;;;;;24.14;57.15;100274.59;5004487;28;1714;-48
2021/09/18 11:28:08;;;;;;;;;;;;;;;24.12;57.48;100271.25;5003676;28;1754;-47
2021/09/18 11:30:43;;;;;;;;;;;;;;;24.14;57.34;100271.06;5002301;28;1724;-47
2021/09/18 11:33:10;;;;;;;;;;;;;;;24.17;57.49;100281.50;5006310;28;1072;-47
2021/09/18 11:35:38;;;;;;;;;;;;;;;24.16;57.50;100277.97;5009743;28;2134;-47
2021/09/18 11:38:05;;;;;;;;;;;;;;;24.15;57.59;100280.84;5003938;28;1625;-47
2021/09/18 11:40:32;;;;;;;;;;;;;;;24.15;57.60;100273.59;5007447;28;1162;-47
2021/09/18 11:42:59;;;;;;;;;;;;;;;24.16;57.32;100271.72;5003716;28;1660;-46
2021/09/18 11:45:26;;;;;;;;;;;;;;;24.15;57.50;100280.84;5004314;28;1688;-47
2021/09/18 11:47:56;;;;;;;;;;;;;;;24.17;57.76;100274.25;5008418;28;1512;-47
2021/09/18 11:50:25;;;;;;;;;;;;;;;24.20;57.44;100281.16;5008364;28;1906;-48
2021/09/18 11:52:52;;;;;;;;;;;;;;;24.16;57.18;100277.97;5002930;28;1530;-48
2021/09/18 11:55:26;;;;;;;;;;;;;;;24.13;57.58;100256.72;5005314;28;1083;-47
2021/09/18 11:58:04;;;;;;;;;;;;;;;24.15;57.58;100284.41;5002001;28;1047;-47
2021/09/18 12:00:30;;;;;;;;;;;;;;;24.13;57.32;100277.47;5002163;28;1898;-47
2021/09/18 12:02:58;;;;;;;;;;;;;;;24.18;57.31;100275.09;5001503;28;1849;-48
2021/09/18 12:05:25;;;;;;;;;;;;;;;24.15;57.44;100273.59;5010646;28;1635;-47
2021/09/18 12:07:52;;;;;;;;;;;;;;;24.12;57.15;100265.84;5003721;28;1924;-47
2021/09/18 12:10:19;;;;;;;;;;;;;;;24.14;57.79;100262.97;5005053;28;1898;-47
2021/09/18 12:12:49;;;;;;;;;;;;;;;24.18;57.48;100270.50;5010047;28;1917;-47
2021/09/18 12:15:15;;;;;;;;;;;;;;;24.16;57.46;100266.31;5006900;28;1739;-47
2021/09/18 12:17:42;;;;;;;;;;;;;;;24.19;57.76;100274.91;5003497;28;1942;-47
2021/09/18 12:20:12;;;;;;;;;;;;;;;24.19;58.11;100272.22;5004225;28;1982;-47
2021/09/18 12:22:38;;;;;;;;;;;;;;;24.14;57.48;100261.09;5001330;28;1478;-47
2021/09/18 12:25:05;;;;;;;;;;;;;;;24.17;57.77;100278.78;5001746;28;1749;-47
2021/09/18 12:27:33;;;;;;;;;;;;;;;24.11;57.79;100260.59;5002680;28;1633;-47
2021/09/18 12:30:01;;;;;;;;;;;;;;;24.12;57.69;100270.41;5002816;28;1907;-48
2021/09/18 12:32:28;;;;;;;;;;;;;;;24.14;58.17;100263.78;5002745;28;1536;-46
2021/09/18 12:34:56;;;;;;;;;;;;;;;24.12;57.55;100265.84;5010226;28;1682;-47
2021/09/18 12:37:28;;;;;;;;;;;;;;;24.19;57.36;100269.50;5001327;28;1694;-48
2021/09/18 12:39:54;;;;;;;;;;;;;;;24.18;57.75;100264.28;5004832;28;1151;-47
2021/09/18 12:42:21;;;;;;;;;;;;;;;24.14;57.90;100282.69;5008518;28;1655;-48
2021/09/18 12:44:48;;;;;;;;;;;;;;;24.13;57.68;100267.53;5009881;28;1681;-48
2021/09/18 12:47:23;;;;;;;;;;;;;;;24.14;58.18;100279.16;5001558;28;1626;-47
2021/09/18 12:49:50;;;;;;;;;;;;;;;24.12;57.45;100278.50;5002782;28;1906;-47
2021/09/18 12:52:16;;;;;;;;;;;;;;;24.17;57.75;100270.69;5002510;28;1742;-47
2021/09/18 12:54:46;;;;;;;;;;;;;;;24.15;57.64;100270.91;5002414;28;1229;-47
2021/09/18 12:57:12;;;;;;;;;;;;;;;24.10;57.66;100262.47;5001251;28;1839;-47